Charlton City, MA (01508)

5:03 AM EDT on September 20, 2014 (GMT -0400)
Sturbridge | Change Station
CLOSE
Current Station
Personal Weather Station
Location: Fiskdale, MA
Elevation: 722 ft
Nearby Weather Stations

Elev 722 ft 42.13 °N, 72.10 °W | Updated 3 minutes ago

Partly Cloudy
Partly Cloudy
37.5 °F
Feels Like 38 °F
N
0.0
Wind Variable Wind from North
Gusts 0.0 mph

Today
High -- | Low -- °F
--% Chance of Precip.
Yesterday
High -- | Low -- °F
Precip. -- in
6:33 AM 6:48 PM
Waning Crescent, 13% visible
Pressure 30.37 in
Visibility 10.0 miles
Clouds Scattered Clouds 2400 ft
Windchill 38 °F
Dew Point 35 °F
Humidity 92%
Rainfall 0.00 in
Snow Depth Not available.
UV 0 out of 12
Pollen 3.50 out of 12
PM2.5 Good
Flu Activity Not available.
METAR KORH 200854Z AUTO 19008KT 10SM SCT024 07/04 A3035 RMK AO2 SLP283 T00720044 56008

More Conditions Fewer Conditions

Pressure 30.37 in
Visibility 10.0 miles
Clouds Scattered Clouds 2400 ft
Windchill 38 °F
Dew Point 35 °F
Humidity 92%
Rainfall 0.00 in
Snow Depth Not available.
UV 0 out of 12
Pollen 3.50 out of 12
PM2.5 Good
Flu Activity Not available.
METAR KORH 200854Z AUTO 19008KT 10SM SCT024 07/04 A3035 RMK AO2 SLP283 T00720044 56008

More Conditions Fewer Conditions

10-Day Weather Forecast

Almanac

Astronomy

Sep. 20, 2014 Rise Set
Actual Time 6:33 AM EDT 6:48 PM EDT
Civil Twilight 6:05 AM EDT 7:16 PM EDT
Nautical Twilight 5:32 AM EDT 7:49 PM EDT
Astronomical Twilight 4:58 AM EDT 8:23 PM EDT
Moon 3:06 AM EDT 4:53 PM EDT
Length of Visible Light 13h 11m
Length of Day
12h 15m
Tomorrow will be 2m 49s shorter.
Waning Crescent, 13% of the Moon is Illuminated
Today
Waning Crescent
Sep 24
New
Oct 1
First Quarter
Oct 8
Full
Oct 15
Last Quarter

Today's Extremes

State Highs State Lows

Community

WunderPhotos

Upload Photos

1,754,793 photos uploaded!

WunderBlogs® & News

Nearby

Air Quality

  Air Quality AQ Index Pollutant
Yesterday Good
PM2.5
Yesterday Good
OZONE
Current Good
PM2.5
Saturday Good
PM2.5
Saturday Good
OZONE

Snow Depth

Station Depth Elevation
No new snow has been reported.

Earthquake Activity

City Distance Mag. Time & Date
No recent earthquake activity has been reported nearby.
Minimum magnitude displayed is 2.5.

Coastal Water Temperatures

Place Temperature
No Stations Reporting

Nearby Weather Stations